sensor_id;sensor_type;location;lat;lon;timestamp;pressure;altitude;pressure_sealevel;temperature;humidity
34482;BME280;20720;48.886;9.388;2022-09-09T00:04:28;97865.00;;;16.23;100.00
34482;BME280;20720;48.886;9.388;2022-09-09T00:07:01;97863.50;;;16.32;100.00
34482;BME280;20720;48.886;9.388;2022-09-09T00:09:29;97871.16;;;16.28;100.00
34482;BME280;20720;48.886;9.388;2022-09-09T00:12:00;97864.56;;;16.31;100.00
34482;BME280;20720;48.886;9.388;2022-09-09T00:14:41;97859.56;;;16.13;100.00
34482;BME280;20720;48.886;9.388;2022-09-09T00:17:12;97849.59;;;16.20;100.00
34482;BME280;20720;48.886;9.388;2022-09-09T00:19:41;97847.16;;;16.18;100.00
34482;BME280;20720;48.886;9.388;2022-09-09T00:22:18;97846.28;;;16.13;100.00
34482;BME280;20720;48.886;9.388;2022-09-09T00:24:51;97842.47;;;16.03;100.00
34482;BME280;20720;48.886;9.388;2022-09-09T00:30:16;97833.56;;;15.71;100.00
34482;BME280;20720;48.886;9.388;2022-09-09T00:32:44;97835.59;;;15.86;100.00
34482;BME280;20720;48.886;9.388;2022-09-09T00:37:35;97826.47;;;15.77;100.00
34482;BME280;20720;48.886;9.388;2022-09-09T00:40:01;97826.88;;;15.85;100.00
34482;BME280;20720;48.886;9.388;2022-09-09T00:42:46;97819.69;;;15.31;100.00
34482;BME280;20720;48.886;9.388;2022-09-09T00:45:32;97815.22;;;15.48;100.00
34482;BME280;20720;48.886;9.388;2022-09-09T00:47:59;97812.63;;;15.70;100.00
34482;BME280;20720;48.886;9.388;2022-09-09T00:58:35;97815.78;;;15.88;100.00
34482;BME280;20720;48.886;9.388;2022-09-09T01:01:18;97826.22;;;15.95;100.00
34482;BME280;20720;48.886;9.388;2022-09-09T01:11:26;97844.75;;;16.17;100.00
34482;BME280;20720;48.886;9.388;2022-09-09T01:14:10;97849.09;;;16.23;100.00
34482;BME280;20720;48.886;9.388;2022-09-09T01:16:38;97857.25;;;16.59;100.00
34482;BME280;20720;48.886;9.388;2022-09-09T01:19:03;97858.34;;;16.42;100.00
34482;BME280;20720;48.886;9.388;2022-09-09T01:21:41;97861.03;;;16.47;100.00
34482;BME280;20720;48.886;9.388;2022-09-09T01:24:24;97866.44;;;16.52;100.00
34482;BME280;20720;48.886;9.388;2022-09-09T01:26:52;97868.41;;;16.61;100.00
34482;BME280;20720;48.886;9.388;2022-09-09T01:29:20;97875.31;;;16.62;100.00
34482;BME280;20720;48.886;9.388;2022-09-09T01:34:17;97874.81;;;16.44;100.00
34482;BME280;20720;48.886;9.388;2022-09-09T01:39:15;97865.56;;;16.46;100.00
34482;BME280;20720;48.886;9.388;2022-09-09T01:41:41;97871.09;;;16.45;100.00
34482;BME280;20720;48.886;9.388;2022-09-09T01:44:06;97875.50;;;16.56;100.00
34482;BME280;20720;48.886;9.388;2022-09-09T01:46:32;97879.75;;;16.78;100.00
34482;BME280;20720;48.886;9.388;2022-09-09T01:48:57;97883.00;;;16.64;100.00
34482;BME280;20720;48.886;9.388;2022-09-09T01:51:24;97891.84;;;16.96;100.00
34482;BME280;20720;48.886;9.388;2022-09-09T01:53:49;97887.34;;;16.97;100.00
34482;BME280;20720;48.886;9.388;2022-09-09T01:56:21;97882.75;;;16.87;100.00
34482;BME280;20720;48.886;9.388;2022-09-09T02:01:17;97876.53;;;17.03;100.00
34482;BME280;20720;48.886;9.388;2022-09-09T02:03:51;97887.25;;;17.13;100.00
34482;BME280;20720;48.886;9.388;2022-09-09T02:06:24;97880.91;;;17.14;100.00
34482;BME280;20720;48.886;9.388;2022-09-09T02:08:52;97885.06;;;17.05;100.00
34482;BME280;20720;48.886;9.388;2022-09-09T02:11:18;97868.91;;;16.85;100.00
34482;BME280;20720;48.886;9.388;2022-09-09T02:13:45;97859.28;;;16.79;100.00
34482;BME280;20720;48.886;9.388;2022-09-09T02:18:46;97843.53;;;16.67;100.00
34482;BME280;20720;48.886;9.388;2022-09-09T02:21:13;97845.47;;;16.77;100.00
34482;BME280;20720;48.886;9.388;2022-09-09T02:23:40;97845.31;;;16.62;100.00
34482;BME280;20720;48.886;9.388;2022-09-09T02:26:06;97840.56;;;16.64;100.00
34482;BME280;20720;48.886;9.388;2022-09-09T02:28:33;97849.16;;;16.49;100.00
34482;BME280;20720;48.886;9.388;2022-09-09T02:30:59;97852.16;;;16.58;100.00
34482;BME280;20720;48.886;9.388;2022-09-09T02:33:26;97856.38;;;16.54;100.00
34482;BME280;20720;48.886;9.388;2022-09-09T02:35:52;97849.88;;;16.45;100.00
34482;BME280;20720;48.886;9.388;2022-09-09T02:38:17;97849.38;;;16.26;100.00
34482;BME280;20720;48.886;9.388;2022-09-09T02:40:45;97850.44;;;16.47;100.00
34482;BME280;20720;48.886;9.388;2022-09-09T02:43:10;97836.56;;;15.96;100.00
34482;BME280;20720;48.886;9.388;2022-09-09T02:46:00;97832.06;;;16.19;100.00
34482;BME280;20720;48.886;9.388;2022-09-09T02:48:23;97842.66;;;15.97;100.00
34482;BME280;20720;48.886;9.388;2022-09-09T02:50:54;97848.34;;;16.06;100.00
34482;BME280;20720;48.886;9.388;2022-09-09T02:53:24;97852.53;;;16.01;100.00
34482;BME280;20720;48.886;9.388;2022-09-09T02:55:52;97847.38;;;15.73;100.00
34482;BME280;20720;48.886;9.388;2022-09-09T02:58:19;97847.66;;;15.77;100.00
34482;BME280;20720;48.886;9.388;2022-09-09T03:00:45;97856.88;;;15.91;100.00
34482;BME280;20720;48.886;9.388;2022-09-09T03:03:11;97858.97;;;15.89;100.00
34482;BME280;20720;48.886;9.388;2022-09-09T03:05:36;97866.56;;;15.64;100.00
34482;BME280;20720;48.886;9.388;2022-09-09T03:08:03;97848.41;;;15.72;100.00
34482;BME280;20720;48.886;9.388;2022-09-09T03:10:28;97845.38;;;15.64;100.00
34482;BME280;20720;48.886;9.388;2022-09-09T03:12:54;97843.00;;;15.46;100.00
34482;BME280;20720;48.886;9.388;2022-09-09T03:15:20;97837.16;;;15.82;100.00
34482;BME280;20720;48.886;9.388;2022-09-09T03:17:45;97839.22;;;15.96;100.00
34482;BME280;20720;48.886;9.388;2022-09-09T03:20:10;97836.09;;;15.83;100.00
34482;BME280;20720;48.886;9.388;2022-09-09T03:22:35;97835.06;;;15.84;100.00
34482;BME280;20720;48.886;9.388;2022-09-09T03:25:01;97834.97;;;15.57;100.00
34482;BME280;20720;48.886;9.388;2022-09-09T03:27:27;97823.16;;;15.65;100.00
34482;BME280;20720;48.886;9.388;2022-09-09T03:29:53;97830.09;;;15.71;100.00
34482;BME280;20720;48.886;9.388;2022-09-09T03:32:18;97837.47;;;15.85;100.00
34482;BME280;20720;48.886;9.388;2022-09-09T03:34:43;97839.72;;;15.77;100.00
34482;BME280;20720;48.886;9.388;2022-09-09T03:37:09;97847.63;;;15.72;100.00
34482;BME280;20720;48.886;9.388;2022-09-09T03:39:34;97859.00;;;16.11;100.00
34482;BME280;20720;48.886;9.388;2022-09-09T03:41:59;97888.69;;;16.72;100.00
34482;BME280;20720;48.886;9.388;2022-09-09T03:44:24;97899.81;;;16.96;100.00
34482;BME280;20720;48.886;9.388;2022-09-09T03:46:49;97910.09;;;17.14;100.00
34482;BME280;20720;48.886;9.388;2022-09-09T03:49:15;97913.47;;;17.36;100.00
34482;BME280;20720;48.886;9.388;2022-09-09T03:51:40;97918.47;;;17.01;100.00
34482;BME280;20720;48.886;9.388;2022-09-09T03:54:06;97908.72;;;17.12;100.00
34482;BME280;20720;48.886;9.388;2022-09-09T03:56:33;97909.09;;;17.20;100.00
34482;BME280;20720;48.886;9.388;2022-09-09T03:58:58;97911.63;;;17.37;100.00
34482;BME280;20720;48.886;9.388;2022-09-09T04:01:23;97925.03;;;16.93;100.00
34482;BME280;20720;48.886;9.388;2022-09-09T04:03:48;97920.09;;;16.80;100.00
34482;BME280;20720;48.886;9.388;2022-09-09T04:06:15;97912.38;;;16.79;100.00
34482;BME280;20720;48.886;9.388;2022-09-09T04:08:41;97909.53;;;16.64;100.00
34482;BME280;20720;48.886;9.388;2022-09-09T04:11:06;97903.19;;;16.65;100.00
34482;BME280;20720;48.886;9.388;2022-09-09T04:13:33;97905.00;;;16.43;100.00
34482;BME280;20720;48.886;9.388;2022-09-09T04:15:59;97908.06;;;16.13;100.00
34482;BME280;20720;48.886;9.388;2022-09-09T04:18:24;97900.06;;;16.08;100.00
34482;BME280;20720;48.886;9.388;2022-09-09T04:20:51;97899.56;;;16.11;100.00
34482;BME280;20720;48.886;9.388;2022-09-09T04:23:17;97890.19;;;16.03;100.00
34482;BME280;20720;48.886;9.388;2022-09-09T04:25:46;97889.19;;;15.71;100.00
34482;BME280;20720;48.886;9.388;2022-09-09T04:28:12;97880.34;;;15.66;100.00
34482;BME280;20720;48.886;9.388;2022-09-09T04:30:38;97880.03;;;15.79;100.00
34482;BME280;20720;48.886;9.388;2022-09-09T04:33:04;97875.56;;;15.63;100.00
34482;BME280;20720;48.886;9.388;2022-09-09T04:35:30;97874.25;;;15.82;100.00
34482;BME280;20720;48.886;9.388;2022-09-09T04:37:55;97872.31;;;15.77;100.00
34482;BME280;20720;48.886;9.388;2022-09-09T04:40:20;97883.34;;;16.08;100.00
34482;BME280;20720;48.886;9.388;2022-09-09T04:42:47;97895.22;;;16.22;100.00
34482;BME280;20720;48.886;9.388;2022-09-09T04:45:15;97893.16;;;16.29;100.00
34482;BME280;20720;48.886;9.388;2022-09-09T04:47:40;97900.63;;;16.32;100.00
34482;BME280;20720;48.886;9.388;2022-09-09T04:50:06;97898.84;;;16.37;100.00
34482;BME280;20720;48.886;9.388;2022-09-09T04:52:33;97899.94;;;16.41;100.00
34482;BME280;20720;48.886;9.388;2022-09-09T04:54:58;97895.41;;;16.37;100.00
34482;BME280;20720;48.886;9.388;2022-09-09T04:57:23;97903.91;;;16.39;100.00
34482;BME280;20720;48.886;9.388;2022-09-09T04:59:49;97901.53;;;16.21;100.00
34482;BME280;20720;48.886;9.388;2022-09-09T05:02:15;97918.44;;;16.74;100.00
34482;BME280;20720;48.886;9.388;2022-09-09T05:04:40;97925.78;;;16.94;100.00
34482;BME280;20720;48.886;9.388;2022-09-09T05:07:05;97922.94;;;16.74;100.00
34482;BME280;20720;48.886;9.388;2022-09-09T05:09:31;97929.59;;;16.76;100.00
34482;BME280;20720;48.886;9.388;2022-09-09T05:11:56;97943.47;;;17.05;100.00
34482;BME280;20720;48.886;9.388;2022-09-09T05:14:23;97950.34;;;17.06;100.00
34482;BME280;20720;48.886;9.388;2022-09-09T05:16:48;97952.06;;;17.17;100.00
34482;BME280;20720;48.886;9.388;2022-09-09T05:19:14;97961.81;;;17.33;100.00
34482;BME280;20720;48.886;9.388;2022-09-09T05:21:39;97954.84;;;17.54;100.00
34482;BME280;20720;48.886;9.388;2022-09-09T05:24:06;97959.47;;;17.68;100.00
34482;BME280;20720;48.886;9.388;2022-09-09T05:26:31;97971.44;;;18.03;100.00
34482;BME280;20720;48.886;9.388;2022-09-09T05:28:57;97982.28;;;18.33;100.00
34482;BME280;20720;48.886;9.388;2022-09-09T05:31:24;97981.72;;;17.89;100.00
34482;BME280;20720;48.886;9.388;2022-09-09T05:33:53;97984.53;;;18.46;100.00
34482;BME280;20720;48.886;9.388;2022-09-09T05:36:19;97989.38;;;18.59;100.00
34482;BME280;20720;48.886;9.388;2022-09-09T05:38:45;97991.47;;;18.47;100.00
34482;BME280;20720;48.886;9.388;2022-09-09T05:41:10;97993.69;;;18.65;100.00
34482;BME280;20720;48.886;9.388;2022-09-09T05:43:36;97987.47;;;18.49;100.00
34482;BME280;20720;48.886;9.388;2022-09-09T05:46:10;97991.84;;;18.29;100.00
34482;BME280;20720;48.886;9.388;2022-09-09T05:48:36;97992.53;;;18.51;100.00
34482;BME280;20720;48.886;9.388;2022-09-09T05:51:02;98000.22;;;18.47;100.00
34482;BME280;20720;48.886;9.388;2022-09-09T05:53:28;97999.75;;;17.87;100.00
34482;BME280;20720;48.886;9.388;2022-09-09T05:56:04;97994.13;;;18.47;100.00
34482;BME280;20720;48.886;9.388;2022-09-09T05:58:30;98000.97;;;18.85;100.00
34482;BME280;20720;48.886;9.388;2022-09-09T06:01:02;98000.09;;;18.74;100.00
34482;BME280;20720;48.886;9.388;2022-09-09T06:03:27;98005.22;;;18.81;100.00
34482;BME280;20720;48.886;9.388;2022-09-09T06:05:59;98011.84;;;18.78;100.00
34482;BME280;20720;48.886;9.388;2022-09-09T06:08:25;98002.41;;;19.12;100.00
34482;BME280;20720;48.886;9.388;2022-09-09T06:10:50;98003.22;;;19.13;100.00
34482;BME280;20720;48.886;9.388;2022-09-09T06:13:16;98016.88;;;19.36;100.00
34482;BME280;20720;48.886;9.388;2022-09-09T06:15:49;98010.44;;;19.22;100.00
34482;BME280;20720;48.886;9.388;2022-09-09T06:18:15;98011.59;;;19.41;100.00
34482;BME280;20720;48.886;9.388;2022-09-09T06:20:42;98019.59;;;19.56;100.00
34482;BME280;20720;48.886;9.388;2022-09-09T06:23:08;98016.94;;;19.56;100.00
34482;BME280;20720;48.886;9.388;2022-09-09T06:25:33;98016.97;;;19.92;100.00
34482;BME280;20720;48.886;9.388;2022-09-09T06:27:59;98016.16;;;19.91;100.00
34482;BME280;20720;48.886;9.388;2022-09-09T06:30:24;98019.66;;;19.87;100.00
34482;BME280;20720;48.886;9.388;2022-09-09T06:32:49;98016.16;;;20.01;100.00
34482;BME280;20720;48.886;9.388;2022-09-09T06:35:15;98026.00;;;19.50;100.00
34482;BME280;20720;48.886;9.388;2022-09-09T06:37:44;98023.34;;;19.65;100.00
34482;BME280;20720;48.886;9.388;2022-09-09T06:40:09;98019.09;;;19.69;100.00
34482;BME280;20720;48.886;9.388;2022-09-09T06:42:34;98023.81;;;19.47;100.00
34482;BME280;20720;48.886;9.388;2022-09-09T06:45:00;98026.56;;;19.83;100.00
34482;BME280;20720;48.886;9.388;2022-09-09T06:47:25;98028.97;;;19.89;100.00
34482;BME280;20720;48.886;9.388;2022-09-09T06:49:52;98029.78;;;20.10;100.00
34482;BME280;20720;48.886;9.388;2022-09-09T06:52:17;98034.59;;;19.98;100.00
34482;BME280;20720;48.886;9.388;2022-09-09T06:54:43;98034.94;;;19.29;100.00
34482;BME280;20720;48.886;9.388;2022-09-09T06:57:08;98044.72;;;19.76;100.00
34482;BME280;20720;48.886;9.388;2022-09-09T06:59:33;98040.47;;;20.30;100.00
34482;BME280;20720;48.886;9.388;2022-09-09T07:01:58;98038.84;;;20.09;100.00
34482;BME280;20720;48.886;9.388;2022-09-09T07:04:24;98044.19;;;20.04;100.00
34482;BME280;20720;48.886;9.388;2022-09-09T07:06:50;98041.03;;;20.27;100.00
34482;BME280;20720;48.886;9.388;2022-09-09T07:09:17;98046.31;;;19.97;100.00
34482;BME280;20720;48.886;9.388;2022-09-09T07:11:43;98047.41;;;20.26;100.00
34482;BME280;20720;48.886;9.388;2022-09-09T07:14:09;98047.44;;;20.21;100.00
34482;BME280;20720;48.886;9.388;2022-09-09T07:16:37;98048.47;;;20.15;100.00
34482;BME280;20720;48.886;9.388;2022-09-09T07:19:03;98042.59;;;20.08;100.00
34482;BME280;20720;48.886;9.388;2022-09-09T07:21:29;98043.03;;;20.90;100.00
34482;BME280;20720;48.886;9.388;2022-09-09T07:23:54;98041.69;;;20.88;100.00
34482;BME280;20720;48.886;9.388;2022-09-09T07:26:21;98042.47;;;20.98;100.00
34482;BME280;20720;48.886;9.388;2022-09-09T07:28:47;98052.09;;;20.94;100.00
34482;BME280;20720;48.886;9.388;2022-09-09T07:31:13;98042.97;;;21.15;100.00
34482;BME280;20720;48.886;9.388;2022-09-09T07:33:38;98042.50;;;22.01;100.00
34482;BME280;20720;48.886;9.388;2022-09-09T07:36:15;98052.22;;;21.87;100.00
34482;BME280;20720;48.886;9.388;2022-09-09T07:38:41;98053.31;;;21.86;100.00
34482;BME280;20720;48.886;9.388;2022-09-09T07:41:08;98066.66;;;22.24;99.67
34482;BME280;20720;48.886;9.388;2022-09-09T07:43:37;98060.44;;;22.34;96.63
34482;BME280;20720;48.886;9.388;2022-09-09T07:46:02;98066.47;;;21.23;100.00
34482;BME280;20720;48.886;9.388;2022-09-09T07:48:28;98069.34;;;21.91;100.00
34482;BME280;20720;48.886;9.388;2022-09-09T07:51:02;98068.31;;;21.77;100.00
34482;BME280;20720;48.886;9.388;2022-09-09T07:53:27;98075.25;;;21.83;99.83
34482;BME280;20720;48.886;9.388;2022-09-09T07:55:53;98075.81;;;22.52;97.01
34482;BME280;20720;48.886;9.388;2022-09-09T07:58:20;98072.41;;;22.08;97.70
34482;BME280;20720;48.886;9.388;2022-09-09T08:00:45;98069.69;;;22.13;97.17
34482;BME280;20720;48.886;9.388;2022-09-09T08:03:10;98079.84;;;23.30;90.83
34482;BME280;20720;48.886;9.388;2022-09-09T08:05:35;98089.75;;;22.49;93.27
34482;BME280;20720;48.886;9.388;2022-09-09T08:08:01;98094.19;;;22.30;95.80
34482;BME280;20720;48.886;9.388;2022-09-09T08:10:28;98097.66;;;21.97;100.00
34482;BME280;20720;48.886;9.388;2022-09-09T08:12:53;98101.34;;;22.06;95.98
34482;BME280;20720;48.886;9.388;2022-09-09T08:15:20;98100.81;;;23.00;96.98
34482;BME280;20720;48.886;9.388;2022-09-09T08:17:45;98106.16;;;23.71;87.55
34482;BME280;20720;48.886;9.388;2022-09-09T08:20:10;98099.50;;;24.75;79.88
34482;BME280;20720;48.886;9.388;2022-09-09T08:22:36;98098.22;;;24.86;80.08
34482;BME280;20720;48.886;9.388;2022-09-09T08:25:02;98103.00;;;25.02;78.42
34482;BME280;20720;48.886;9.388;2022-09-09T08:27:31;98110.53;;;24.41;82.95
34482;BME280;20720;48.886;9.388;2022-09-09T08:29:57;98117.31;;;24.52;78.42
34482;BME280;20720;48.886;9.388;2022-09-09T08:32:22;98115.38;;;25.71;72.93
34482;BME280;20720;48.886;9.388;2022-09-09T08:34:47;98119.41;;;24.87;75.63
34482;BME280;20720;48.886;9.388;2022-09-09T08:37:14;98114.94;;;26.05;72.52
34482;BME280;20720;48.886;9.388;2022-09-09T08:39:39;98114.91;;;26.93;69.11
34482;BME280;20720;48.886;9.388;2022-09-09T08:47:38;98129.81;;;25.89;72.73
34482;BME280;20720;48.886;9.388;2022-09-09T08:50:13;98130.78;;;24.84;77.11
34482;BME280;20720;48.886;9.388;2022-09-09T08:55:37;98124.13;;;26.26;72.61
34482;BME280;20720;48.886;9.388;2022-09-09T09:00:40;98122.06;;;25.74;72.44
34482;BME280;20720;48.886;9.388;2022-09-09T09:12:57;98114.38;;;24.99;77.95
34482;BME280;20720;48.886;9.388;2022-09-09T09:15:25;98115.19;;;26.39;73.78
34482;BME280;20720;48.886;9.388;2022-09-09T09:17:51;98111.88;;;26.42;71.48
34482;BME280;20720;48.886;9.388;2022-09-09T09:20:18;98118.44;;;26.05;71.12
34482;BME280;20720;48.886;9.388;2022-09-09T09:22:47;98100.50;;;25.06;78.63
34482;BME280;20720;48.886;9.388;2022-09-09T09:25:23;98098.66;;;26.54;71.07
34482;BME280;20720;48.886;9.388;2022-09-09T09:27:54;98099.25;;;28.25;65.52
34482;BME280;20720;48.886;9.388;2022-09-09T09:30:24;98097.72;;;25.79;73.15
34482;BME280;20720;48.886;9.388;2022-09-09T09:33:35;98085.47;;;27.45;67.97
34482;BME280;20720;48.886;9.388;2022-09-09T09:35:39;98086.81;;;25.84;73.49
34482;BME280;20720;48.886;9.388;2022-09-09T09:40:49;98086.06;;;23.87;85.31
34482;BME280;20720;48.886;9.388;2022-09-09T09:43:18;98081.19;;;23.52;89.86
34482;BME280;20720;48.886;9.388;2022-09-09T09:45:45;98081.31;;;23.42;80.76
34482;BME280;20720;48.886;9.388;2022-09-09T09:48:11;98090.56;;;23.07;83.26
34482;BME280;20720;48.886;9.388;2022-09-09T09:50:46;98093.06;;;23.46;83.58
34482;BME280;20720;48.886;9.388;2022-09-09T09:53:46;98089.31;;;22.99;78.95
34482;BME280;20720;48.886;9.388;2022-09-09T09:56:08;98097.00;;;23.53;74.54
34482;BME280;20720;48.886;9.388;2022-09-09T10:01:22;98070.59;;;22.94;83.70
34482;BME280;20720;48.886;9.388;2022-09-09T10:03:52;98061.47;;;23.43;81.91
34482;BME280;20720;48.886;9.388;2022-09-09T10:06:29;98075.41;;;24.19;76.09
34482;BME280;20720;48.886;9.388;2022-09-09T10:08:54;98074.22;;;25.44;70.65
34482;BME280;20720;48.886;9.388;2022-09-09T10:11:35;98085.34;;;25.78;65.77
34482;BME280;20720;48.886;9.388;2022-09-09T10:14:06;98082.59;;;26.27;59.44
34482;BME280;20720;48.886;9.388;2022-09-09T10:19:21;98079.53;;;25.49;53.09
34482;BME280;20720;48.886;9.388;2022-09-09T10:24:33;98081.78;;;27.32;49.23
34482;BME280;20720;48.886;9.388;2022-09-09T10:29:54;98076.16;;;27.68;53.05
34482;BME280;20720;48.886;9.388;2022-09-09T10:35:13;98073.00;;;28.09;49.05
34482;BME280;20720;48.886;9.388;2022-09-09T10:42:51;98074.56;;;27.75;50.38
34482;BME280;20720;48.886;9.388;2022-09-09T10:45:40;98075.81;;;27.69;50.30
34482;BME280;20720;48.886;9.388;2022-09-09T10:50:40;98078.75;;;28.16;50.39
34482;BME280;20720;48.886;9.388;2022-09-09T10:55:39;98082.47;;;27.07;53.83
34482;BME280;20720;48.886;9.388;2022-09-09T10:58:09;98081.25;;;27.78;52.50
34482;BME280;20720;48.886;9.388;2022-09-09T11:00:38;98074.56;;;29.16;50.67
34482;BME280;20720;48.886;9.388;2022-09-09T11:03:04;98067.75;;;28.55;51.96
34482;BME280;20720;48.886;9.388;2022-09-09T11:05:31;98081.03;;;27.40;54.66
34482;BME280;20720;48.886;9.388;2022-09-09T11:08:06;98067.19;;;26.41;58.16
34482;BME280;20720;48.886;9.388;2022-09-09T11:13:23;98067.94;;;25.97;59.17
34482;BME280;20720;48.886;9.388;2022-09-09T11:15:52;98069.44;;;26.26;59.91
34482;BME280;20720;48.886;9.388;2022-09-09T11:18:20;98063.00;;;26.79;56.81
34482;BME280;20720;48.886;9.388;2022-09-09T11:20:50;98058.81;;;27.13;55.26
34482;BME280;20720;48.886;9.388;2022-09-09T11:23:24;98052.97;;;26.05;59.12
34482;BME280;20720;48.886;9.388;2022-09-09T11:25:54;98048.75;;;26.13;59.00
34482;BME280;20720;48.886;9.388;2022-09-09T11:28:28;98050.84;;;25.17;62.56
34482;BME280;20720;48.886;9.388;2022-09-09T11:41:16;98123.19;;;24.73;70.44
34482;BME280;20720;48.886;9.388;2022-09-09T11:46:09;98089.56;;;20.39;100.00
34482;BME280;20720;48.886;9.388;2022-09-09T11:48:36;98011.63;;;20.12;100.00
34482;BME280;20720;48.886;9.388;2022-09-09T11:51:05;98038.25;;;19.66;100.00
34482;BME280;20720;48.886;9.388;2022-09-09T11:53:32;98035.03;;;19.49;100.00
34482;BME280;20720;48.886;9.388;2022-09-09T11:56:01;98015.31;;;19.50;100.00
34482;BME280;20720;48.886;9.388;2022-09-09T11:58:28;98021.78;;;20.00;100.00
34482;BME280;20720;48.886;9.388;2022-09-09T12:00:57;98022.34;;;20.32;100.00
34482;BME280;20720;48.886;9.388;2022-09-09T12:03:43;98012.19;;;20.39;100.00
34482;BME280;20720;48.886;9.388;2022-09-09T12:08:35;97999.72;;;20.98;100.00
34482;BME280;20720;48.886;9.388;2022-09-09T12:11:01;98038.16;;;22.10;100.00
34482;BME280;20720;48.886;9.388;2022-09-09T12:13:28;98064.81;;;23.29;100.00
34482;BME280;20720;48.886;9.388;2022-09-09T12:15:54;98069.25;;;24.64;100.00
34482;BME280;20720;48.886;9.388;2022-09-09T12:18:32;98089.31;;;25.94;91.85
34482;BME280;20720;48.886;9.388;2022-09-09T12:23:54;98105.19;;;28.99;70.62
34482;BME280;20720;48.886;9.388;2022-09-09T12:26:36;98089.25;;;27.05;78.91
34482;BME280;20720;48.886;9.388;2022-09-09T12:29:16;98095.81;;;24.20;82.24
34482;BME280;20720;48.886;9.388;2022-09-09T12:34:17;98105.31;;;26.13;78.73
34482;BME280;20720;48.886;9.388;2022-09-09T12:36:47;98106.41;;;27.39;68.69
34482;BME280;20720;48.886;9.388;2022-09-09T12:39:20;98097.34;;;27.05;69.82
34482;BME280;20720;48.886;9.388;2022-09-09T12:41:53;98097.50;;;27.39;75.35
34482;BME280;20720;48.886;9.388;2022-09-09T12:44:25;98102.47;;;27.45;62.85
34482;BME280;20720;48.886;9.388;2022-09-09T12:46:52;98098.25;;;28.72;61.54
34482;BME280;20720;48.886;9.388;2022-09-09T12:51:50;98095.34;;;27.58;59.92
34482;BME280;20720;48.886;9.388;2022-09-09T12:54:15;98086.75;;;27.08;65.85
34482;BME280;20720;48.886;9.388;2022-09-09T12:56:44;98081.81;;;26.71;65.75
34482;BME280;20720;48.886;9.388;2022-09-09T12:59:17;98070.50;;;26.16;63.16
34482;BME280;20720;48.886;9.388;2022-09-09T13:01:54;98073.00;;;25.77;64.30
34482;BME280;20720;48.886;9.388;2022-09-09T13:04:20;98067.53;;;26.04;71.08
34482;BME280;20720;48.886;9.388;2022-09-09T13:06:47;98069.03;;;26.32;63.69
34482;BME280;20720;48.886;9.388;2022-09-09T13:09:12;98056.47;;;26.80;61.72
34482;BME280;20720;48.886;9.388;2022-09-09T13:11:38;98064.03;;;25.68;65.33
34482;BME280;20720;48.886;9.388;2022-09-09T13:14:04;98056.66;;;26.09;68.16
34482;BME280;20720;48.886;9.388;2022-09-09T13:16:34;98058.06;;;24.76;67.28
34482;BME280;20720;48.886;9.388;2022-09-09T13:19:01;98052.41;;;25.32;69.77
34482;BME280;20720;48.886;9.388;2022-09-09T13:21:37;98061.84;;;25.70;69.30
34482;BME280;20720;48.886;9.388;2022-09-09T13:24:04;98054.78;;;25.33;66.62
34482;BME280;20720;48.886;9.388;2022-09-09T13:26:29;98049.69;;;25.59;70.85
34482;BME280;20720;48.886;9.388;2022-09-09T13:28:55;98054.72;;;25.25;69.53
34482;BME280;20720;48.886;9.388;2022-09-09T13:31:33;98051.03;;;24.93;72.77
34482;BME280;20720;48.886;9.388;2022-09-09T13:33:58;98044.34;;;25.18;68.23
34482;BME280;20720;48.886;9.388;2022-09-09T13:36:30;98038.34;;;25.62;72.03
34482;BME280;20720;48.886;9.388;2022-09-09T13:38:56;98043.88;;;25.79;71.97
34482;BME280;20720;48.886;9.388;2022-09-09T13:41:25;98033.78;;;25.49;72.50
34482;BME280;20720;48.886;9.388;2022-09-09T13:43:53;98038.09;;;25.23;73.18
34482;BME280;20720;48.886;9.388;2022-09-09T13:48:58;98028.94;;;25.73;72.06
34482;BME280;20720;48.886;9.388;2022-09-09T13:51:42;98032.75;;;26.91;67.10
34482;BME280;20720;48.886;9.388;2022-09-09T13:54:09;98024.38;;;27.57;65.34
34482;BME280;20720;48.886;9.388;2022-09-09T13:56:35;98020.63;;;27.28;66.15
34482;BME280;20720;48.886;9.388;2022-09-09T13:59:00;98021.81;;;27.05;65.67
34482;BME280;20720;48.886;9.388;2022-09-09T14:01:25;98016.03;;;26.80;63.06
34482;BME280;20720;48.886;9.388;2022-09-09T14:03:52;98014.38;;;25.11;63.14
34482;BME280;20720;48.886;9.388;2022-09-09T14:06:17;98016.81;;;25.35;63.86
34482;BME280;20720;48.886;9.388;2022-09-09T14:08:44;98015.72;;;24.54;64.57
34482;BME280;20720;48.886;9.388;2022-09-09T14:11:11;98015.78;;;24.49;66.72
34482;BME280;20720;48.886;9.388;2022-09-09T14:13:37;98014.63;;;24.55;66.50
34482;BME280;20720;48.886;9.388;2022-09-09T14:16:02;98017.22;;;24.60;67.70
34482;BME280;20720;48.886;9.388;2022-09-09T14:18:27;98013.25;;;25.26;65.99
34482;BME280;20720;48.886;9.388;2022-09-09T14:20:54;98023.19;;;24.57;65.86
34482;BME280;20720;48.886;9.388;2022-09-09T14:23:19;98019.25;;;24.95;66.31
34482;BME280;20720;48.886;9.388;2022-09-09T14:25:44;98015.97;;;26.41;61.26
34482;BME280;20720;48.886;9.388;2022-09-09T14:28:10;98014.66;;;26.08;61.30
34482;BME280;20720;48.886;9.388;2022-09-09T14:30:37;98019.66;;;24.89;63.29
34482;BME280;20720;48.886;9.388;2022-09-09T14:33:02;98017.47;;;26.56;60.51
34482;BME280;20720;48.886;9.388;2022-09-09T14:35:27;98009.97;;;27.31;57.63
34482;BME280;20720;48.886;9.388;2022-09-09T14:37:52;98008.59;;;29.91;49.33
34482;BME280;20720;48.886;9.388;2022-09-09T14:40:18;98008.09;;;31.35;45.42
34482;BME280;20720;48.886;9.388;2022-09-09T14:42:43;98004.03;;;29.62;48.63
34482;BME280;20720;48.886;9.388;2022-09-09T14:45:08;98006.31;;;27.19;54.51
34482;BME280;20720;48.886;9.388;2022-09-09T14:47:34;98004.44;;;25.61;55.61
34482;BME280;20720;48.886;9.388;2022-09-09T14:49:59;98002.50;;;25.97;54.32